createdAt,value
2023-01-30T00:00:07.122Z,12.10
2023-01-30T00:02:33.837Z,14.00
2023-01-30T00:05:00.537Z,11.80
2023-01-30T00:09:53.860Z,11.80
2023-01-30T00:16:41.481Z,11.90
2023-01-30T00:19:08.340Z,13.40
2023-01-30T00:24:01.593Z,13.20
2023-01-30T00:26:28.295Z,13.60
2023-01-30T00:28:55.035Z,13.00
2023-01-30T00:31:21.736Z,12.30
2023-01-30T00:33:50.268Z,13.00
2023-01-30T00:36:16.866Z,13.30
2023-01-30T00:38:43.457Z,12.00
2023-01-30T00:41:10.995Z,11.70
2023-01-30T00:43:56.682Z,12.30
2023-01-30T00:47:00.388Z,11.10
2023-01-30T00:49:27.064Z,11.90
2023-01-30T00:51:53.720Z,10.10
2023-01-30T00:56:47.086Z,9.70
2023-01-30T00:59:13.783Z,10.80
2023-01-30T01:01:41.039Z,11.00
2023-01-30T01:04:10.454Z,10.50
2023-01-30T01:06:38.680Z,11.10
2023-01-30T01:09:06.238Z,11.40
2023-01-30T01:11:33.052Z,10.20
2023-01-30T01:16:30.252Z,8.70
2023-01-30T01:18:59.160Z,9.10
2023-01-30T01:21:26.105Z,11.70
2023-01-30T01:23:55.778Z,11.00
2023-01-30T01:26:23.332Z,11.00
2023-01-30T01:28:50.165Z,10.40
2023-01-30T01:31:17.975Z,9.70
2023-01-30T01:33:44.745Z,10.40
2023-01-30T01:36:13.593Z,10.40
2023-01-30T01:38:46.722Z,9.40
2023-01-30T01:41:16.636Z,10.50
2023-01-30T01:44:05.468Z,10.70
2023-01-30T01:46:40.446Z,13.40
2023-01-30T01:49:15.421Z,12.00
2023-01-30T01:51:52.028Z,12.10
2023-01-30T01:54:47.493Z,12.70
2023-01-30T01:57:21.050Z,12.70
2023-01-30T01:59:53.213Z,12.50
2023-01-30T02:02:20.728Z,12.70
2023-01-30T02:05:02.420Z,10.10
2023-01-30T02:07:44.816Z,10.20
2023-01-30T02:10:18.122Z,12.50
2023-01-30T02:12:47.894Z,11.60
2023-01-30T02:15:15.667Z,10.80
2023-01-30T02:17:42.608Z,9.90
2023-01-30T02:20:21.201Z,11.10
2023-01-30T02:23:16.187Z,9.60
2023-01-30T02:26:08.793Z,10.30
2023-01-30T02:28:58.540Z,10.10
2023-01-30T02:31:50.069Z,10.50
2023-01-30T02:34:27.304Z,10.40
2023-01-30T02:37:25.592Z,9.60
2023-01-30T02:48:04.726Z,7.90
2023-01-30T02:50:44.215Z,9.50
2023-01-30T02:53:12.154Z,11.20
2023-01-30T02:55:42.864Z,10.40
2023-01-30T02:58:10.879Z,10.70
2023-01-30T03:01:15.141Z,9.30
2023-01-30T03:03:51.125Z,11.00
2023-01-30T03:06:39.495Z,10.20
2023-01-30T03:09:20.846Z,10.40
2023-01-30T03:12:00.696Z,9.50
2023-01-30T03:15:08.097Z,10.00
2023-01-30T03:17:37.190Z,9.70
2023-01-30T03:20:04.613Z,11.30
2023-01-30T03:22:32.124Z,12.80
2023-01-30T03:27:25.831Z,15.00
2023-01-30T03:32:19.204Z,11.80
2023-01-30T03:37:12.524Z,9.90
2023-01-30T03:39:40.273Z,11.70
2023-01-30T03:42:07.401Z,9.50
2023-01-30T03:44:34.212Z,9.60
2023-01-30T03:47:00.930Z,9.20
2023-01-30T03:49:28.321Z,9.90
2023-01-30T03:54:21.929Z,8.30
2023-01-30T03:59:15.394Z,7.60
2023-01-30T04:01:48.628Z,11.50
2023-01-30T04:04:15.354Z,10.60
2023-01-30T04:06:42.294Z,10.60
2023-01-30T04:09:08.907Z,10.10
2023-01-30T04:11:39.944Z,9.70
2023-01-30T04:14:06.734Z,10.60
2023-01-30T04:16:40.983Z,10.40
2023-01-30T04:19:26.420Z,10.60
2023-01-30T04:21:53.341Z,11.40
2023-01-30T04:24:21.500Z,10.70
2023-01-30T04:26:49.153Z,10.30
2023-01-30T04:29:15.817Z,10.00
2023-01-30T04:31:42.809Z,10.30
2023-01-30T04:36:49.199Z,10.10
2023-01-30T04:39:15.880Z,9.50
2023-01-30T04:41:42.768Z,10.10
2023-01-30T04:44:09.684Z,9.40
2023-01-30T04:46:47.877Z,10.50
2023-01-30T04:49:14.923Z,9.70
2023-01-30T04:51:43.725Z,9.20
2023-01-30T04:54:10.353Z,11.10
2023-01-30T04:56:36.988Z,10.50
2023-01-30T04:59:04.962Z,10.10
2023-01-30T05:01:39.111Z,11.20
2023-01-30T05:04:07.719Z,10.10
2023-01-30T05:06:35.651Z,10.00
2023-01-30T05:09:02.855Z,9.70
2023-01-30T05:11:30.560Z,10.40
2023-01-30T05:13:57.786Z,9.70
2023-01-30T05:16:24.951Z,8.40
2023-01-30T05:18:51.803Z,8.80
2023-01-30T05:23:47.031Z,7.90
2023-01-30T05:26:15.415Z,8.30
2023-01-30T05:28:43.149Z,9.10
2023-01-30T05:31:13.039Z,8.00
2023-01-30T05:33:41.175Z,8.80
2023-01-30T05:36:13.799Z,8.50
2023-01-30T05:38:40.486Z,8.60
2023-01-30T05:41:08.678Z,8.70
2023-01-30T05:43:35.571Z,8.10
2023-01-30T05:48:30.258Z,7.80
2023-01-30T05:50:58.731Z,8.30
2023-01-30T05:53:29.405Z,8.70
2023-01-30T05:55:56.580Z,9.20
2023-01-30T05:58:23.677Z,9.30
2023-01-30T06:00:50.994Z,9.70
2023-01-30T06:03:18.446Z,9.70
2023-01-30T06:05:45.316Z,10.10
2023-01-30T06:10:38.913Z,7.50
2023-01-30T06:13:05.753Z,9.40
2023-01-30T06:17:59.610Z,9.80
2023-01-30T06:20:26.467Z,9.90
2023-01-30T06:22:53.324Z,10.10
2023-01-30T06:25:20.430Z,10.20
2023-01-30T06:27:47.445Z,9.20
2023-01-30T06:30:14.532Z,8.50
2023-01-30T06:32:42.903Z,8.10
2023-01-30T06:35:09.861Z,9.20
2023-01-30T06:37:36.553Z,10.40
2023-01-30T06:40:03.426Z,8.50
2023-01-30T06:44:56.635Z,8.80
2023-01-30T06:47:23.614Z,9.00
2023-01-30T06:49:50.282Z,9.30
2023-01-30T06:52:16.982Z,10.00
2023-01-30T06:54:43.722Z,10.50
2023-01-30T06:57:10.468Z,11.60
2023-01-30T06:59:37.601Z,11.00
2023-01-30T07:02:04.559Z,11.50
2023-01-30T07:04:31.309Z,10.90
2023-01-30T07:06:58.219Z,10.30
2023-01-30T07:09:24.932Z,10.30
2023-01-30T07:11:51.602Z,11.20
2023-01-30T07:14:18.242Z,10.80
2023-01-30T07:16:44.911Z,10.30
2023-01-30T07:19:11.797Z,10.80
2023-01-30T07:24:05.332Z,13.40
2023-01-30T07:26:31.978Z,11.00
2023-01-30T07:28:58.775Z,10.80
2023-01-30T07:31:25.432Z,10.90
2023-01-30T07:33:52.150Z,10.10
2023-01-30T07:36:18.754Z,10.90
2023-01-30T07:38:48.488Z,10.90
2023-01-30T07:41:15.178Z,13.10
2023-01-30T07:43:41.898Z,13.30
2023-01-30T07:46:09.121Z,12.50
2023-01-30T07:48:35.751Z,13.20
2023-01-30T07:51:02.372Z,12.50
2023-01-30T07:53:29.073Z,19.20
2023-01-30T07:55:55.729Z,16.60
2023-01-30T07:58:22.446Z,19.70
2023-01-30T08:00:49.095Z,16.90
2023-01-30T08:03:17.152Z,16.50
2023-01-30T08:05:47.033Z,17.60
2023-01-30T08:08:13.934Z,16.40
2023-01-30T08:13:07.350Z,18.40
2023-01-30T08:18:01.217Z,16.90
2023-01-30T08:20:28.998Z,14.70
2023-01-30T08:22:56.057Z,13.60
2023-01-30T08:25:23.320Z,13.30
2023-01-30T08:27:50.458Z,14.10
2023-01-30T08:30:18.216Z,14.70
2023-01-30T08:32:45.192Z,16.10
2023-01-30T08:35:11.873Z,13.80
2023-01-30T08:37:42.417Z,14.90
2023-01-30T08:40:10.502Z,14.20
2023-01-30T08:42:37.227Z,13.20
2023-01-30T08:45:04.579Z,12.80
2023-01-30T08:47:32.135Z,12.70
2023-01-30T08:49:58.869Z,13.50
2023-01-30T08:52:25.457Z,14.00
2023-01-30T08:54:52.170Z,14.20
2023-01-30T08:57:19.246Z,13.00
2023-01-30T08:59:46.179Z,12.20
2023-01-30T09:02:13.087Z,14.30
2023-01-30T09:04:40.325Z,14.30
2023-01-30T09:07:07.000Z,14.00
2023-01-30T09:09:33.766Z,14.60
2023-01-30T09:14:27.161Z,15.00
2023-01-30T09:16:56.292Z,15.10
2023-01-30T09:19:24.412Z,11.60
2023-01-30T09:21:52.292Z,12.30
2023-01-30T09:24:19.748Z,12.10
2023-01-30T09:26:46.454Z,12.60
2023-01-30T09:31:40.084Z,12.80
2023-01-30T09:34:07.929Z,13.80
2023-01-30T09:36:34.541Z,12.90
2023-01-30T09:39:01.188Z,14.20
2023-01-30T09:41:48.100Z,14.50
2023-01-30T09:44:31.139Z,13.50
2023-01-30T09:47:03.038Z,14.00
2023-01-30T09:49:56.797Z,12.90
2023-01-30T09:52:23.465Z,13.20
2023-01-30T09:54:53.747Z,14.00
2023-01-30T09:57:25.624Z,14.50
2023-01-30T10:00:28.157Z,15.10
2023-01-30T10:03:01.988Z,15.80
2023-01-30T10:05:43.222Z,16.60
2023-01-30T10:08:18.629Z,15.30
2023-01-30T10:11:13.684Z,15.40
2023-01-30T10:14:11.372Z,15.10
2023-01-30T10:16:54.381Z,15.10
2023-01-30T10:19:45.297Z,14.80
2023-01-30T10:22:20.828Z,15.60
2023-01-30T10:25:11.363Z,16.40
2023-01-30T10:27:46.576Z,16.50
2023-01-30T10:30:16.945Z,15.50
2023-01-30T10:32:49.686Z,16.60
2023-01-30T10:35:30.980Z,14.30
2023-01-30T10:38:20.693Z,15.10
2023-01-30T10:40:56.895Z,16.10
2023-01-30T10:43:33.011Z,15.00
2023-01-30T10:46:13.050Z,15.80
2023-01-30T10:48:59.348Z,15.20
2023-01-30T10:51:33.863Z,15.40
2023-01-30T10:54:13.797Z,16.10
2023-01-30T10:57:19.728Z,16.90
2023-01-30T11:00:04.305Z,15.50
2023-01-30T11:02:37.241Z,13.80
2023-01-30T11:05:14.866Z,14.50
2023-01-30T11:07:44.094Z,15.00
2023-01-30T11:10:25.448Z,14.60
2023-01-30T11:13:13.526Z,15.00
2023-01-30T11:15:41.708Z,15.00
2023-01-30T11:19:06.390Z,16.80
2023-01-30T11:21:19.914Z,16.70
2023-01-30T11:23:46.622Z,16.60
2023-01-30T11:29:28.721Z,16.00
2023-01-30T11:31:56.828Z,18.50
2023-01-30T11:34:25.666Z,16.80
2023-01-30T11:36:52.484Z,18.80
2023-01-30T11:41:56.665Z,19.10
2023-01-30T11:44:30.396Z,19.80
2023-01-30T11:47:23.659Z,20.10
2023-01-30T11:50:07.538Z,21.90
2023-01-30T11:52:45.780Z,23.20
2023-01-30T11:55:19.242Z,22.80
2023-01-30T11:57:54.082Z,21.10
2023-01-30T12:00:25.150Z,22.60
2023-01-30T12:02:54.457Z,23.80
2023-01-30T12:05:26.415Z,23.70
2023-01-30T12:07:53.318Z,23.70
2023-01-30T12:10:30.697Z,20.80
2023-01-30T12:17:42.547Z,20.40
2023-01-30T12:20:40.555Z,24.20
2023-01-30T12:23:36.845Z,24.40
2023-01-30T12:26:10.437Z,25.40
2023-01-30T12:29:03.654Z,24.30
2023-01-30T12:31:36.822Z,24.10
2023-01-30T12:38:26.200Z,22.20
2023-01-30T12:41:18.548Z,23.00
2023-01-30T12:44:00.870Z,24.40
2023-01-30T12:46:37.168Z,24.90
2023-01-30T12:49:12.015Z,24.90
2023-01-30T12:51:52.926Z,24.50
2023-01-30T12:55:08.438Z,26.60
2023-01-30T12:58:01.972Z,24.70
2023-01-30T13:01:03.386Z,25.40
2023-01-30T13:03:52.004Z,25.40
2023-01-30T13:06:49.803Z,26.60
2023-01-30T13:09:38.245Z,27.00
2023-01-30T13:12:09.654Z,27.50
2023-01-30T13:14:47.071Z,28.10
2023-01-30T13:17:24.601Z,28.40
2023-01-30T13:20:00.465Z,26.30
2023-01-30T13:22:47.217Z,23.40
2023-01-30T13:25:13.816Z,24.80
2023-01-30T13:30:16.645Z,24.40
2023-01-30T13:32:47.363Z,26.30
2023-01-30T13:35:21.559Z,26.10
2023-01-30T13:37:51.337Z,25.20
2023-01-30T13:40:23.187Z,28.20
2023-01-30T13:42:59.887Z,26.70
2023-01-30T13:45:30.743Z,26.70
2023-01-30T13:48:23.898Z,28.80
2023-01-30T13:51:02.589Z,27.90
2023-01-30T13:53:32.584Z,26.30
2023-01-30T13:56:39.605Z,24.10
2023-01-30T13:59:17.450Z,26.50
2023-01-30T14:02:00.350Z,26.80
2023-01-30T14:04:44.804Z,25.50
2023-01-30T14:07:23.352Z,27.40
2023-01-30T14:10:03.207Z,26.10
2023-01-30T14:12:36.511Z,26.10
2023-01-30T14:15:16.417Z,29.20
2023-01-30T14:18:21.612Z,25.40
2023-01-30T14:20:51.200Z,27.10
2023-01-30T14:23:34.092Z,25.90
2023-01-30T14:26:01.600Z,24.30
2023-01-30T14:28:31.015Z,25.40
2023-01-30T14:31:00.600Z,27.10
2023-01-30T14:33:27.221Z,25.70
2023-01-30T14:38:34.149Z,24.10
2023-01-30T14:41:00.821Z,22.80
2023-01-30T14:46:08.601Z,23.70
2023-01-30T14:48:48.391Z,23.90
2023-01-30T14:51:37.158Z,24.20
2023-01-30T14:54:10.343Z,22.00
2023-01-30T14:56:54.442Z,25.40
2023-01-30T14:59:23.964Z,25.90
2023-01-30T15:02:02.734Z,25.10
2023-01-30T15:04:38.298Z,20.00
2023-01-30T15:07:10.941Z,24.70
2023-01-30T15:12:22.622Z,21.70
2023-01-30T15:14:53.956Z,23.00
2023-01-30T15:17:41.942Z,24.00
2023-01-30T15:20:25.326Z,23.50
2023-01-30T15:27:12.128Z,23.00
2023-01-30T15:29:52.363Z,23.80
2023-01-30T15:32:24.499Z,23.80
2023-01-30T15:35:00.193Z,25.20
2023-01-30T15:37:40.162Z,24.70
2023-01-30T15:40:16.336Z,22.90
2023-01-30T15:43:00.372Z,24.90
2023-01-30T15:45:48.072Z,24.00
2023-01-30T15:48:52.466Z,22.60
2023-01-30T15:51:27.168Z,26.20
2023-01-30T15:53:56.785Z,26.40
2023-01-30T15:56:27.608Z,27.90
2023-01-30T15:58:58.139Z,25.70
2023-01-30T16:01:25.347Z,26.20
2023-01-30T16:03:58.002Z,26.70
2023-01-30T16:06:35.039Z,25.40
2023-01-30T16:09:05.472Z,26.20
2023-01-30T16:15:54.585Z,25.90
2023-01-30T16:22:46.227Z,24.00
2023-01-30T16:25:25.014Z,27.20
2023-01-30T16:30:25.641Z,27.50
2023-01-30T16:32:55.175Z,27.20
2023-01-30T16:35:27.257Z,30.30
2023-01-30T16:37:57.144Z,30.30
2023-01-30T16:40:26.443Z,29.90
2023-01-30T16:42:58.329Z,30.90
2023-01-30T16:49:37.805Z,30.20
2023-01-30T16:56:25.535Z,26.80
2023-01-30T16:58:56.820Z,27.20
2023-01-30T17:01:35.318Z,27.60
2023-01-30T17:04:04.307Z,30.20
2023-01-30T17:06:39.919Z,27.90
2023-01-30T17:09:48.720Z,29.30
2023-01-30T17:12:28.393Z,27.20
2023-01-30T17:15:21.532Z,28.80
2023-01-30T17:17:48.740Z,29.50
2023-01-30T17:20:16.701Z,29.20
2023-01-30T17:22:46.243Z,28.90
2023-01-30T17:25:29.230Z,30.30
2023-01-30T17:27:57.138Z,28.20
2023-01-30T17:30:24.034Z,28.40
2023-01-30T17:32:51.667Z,28.20
2023-01-30T17:37:59.485Z,28.50
2023-01-30T17:40:37.607Z,27.50
2023-01-30T17:43:05.309Z,26.40
2023-01-30T17:45:32.023Z,31.20
2023-01-30T17:50:25.414Z,24.10
2023-01-30T17:52:52.380Z,23.70
2023-01-30T17:55:20.159Z,25.90
2023-01-30T17:57:48.731Z,22.30
2023-01-30T18:00:20.955Z,27.30
2023-01-30T18:02:48.036Z,27.30
2023-01-30T18:05:15.479Z,26.30
2023-01-30T18:07:44.058Z,23.70
2023-01-30T18:10:15.748Z,26.40
2023-01-30T18:12:42.872Z,30.60
2023-01-30T18:15:10.379Z,31.30
2023-01-30T18:17:42.626Z,30.90
2023-01-30T18:20:11.835Z,34.00
2023-01-30T18:22:38.468Z,37.20
2023-01-30T18:25:05.787Z,34.40
2023-01-30T18:27:33.310Z,30.90
2023-01-30T18:29:59.920Z,31.50
2023-01-30T18:32:26.545Z,27.70
2023-01-30T18:34:53.328Z,27.80
2023-01-30T18:39:46.639Z,25.00
2023-01-30T18:42:13.289Z,24.80
2023-01-30T18:47:06.544Z,24.20
2023-01-30T18:49:33.165Z,24.70
2023-01-30T18:51:59.946Z,26.80
2023-01-30T18:56:53.179Z,23.00
2023-01-30T18:59:19.908Z,23.90
2023-01-30T19:04:13.740Z,29.70
2023-01-30T19:06:42.803Z,28.80
2023-01-30T19:09:14.452Z,26.70
2023-01-30T19:11:59.933Z,28.80
2023-01-30T19:14:26.713Z,26.30
2023-01-30T19:19:20.062Z,25.50
2023-01-30T19:24:16.170Z,24.10
2023-01-30T19:26:43.212Z,25.70
2023-01-30T19:29:09.968Z,26.60
2023-01-30T19:31:37.166Z,26.40
2023-01-30T19:34:06.795Z,23.30
2023-01-30T19:36:36.203Z,27.40
2023-01-30T19:39:04.093Z,25.40
2023-01-30T19:41:33.787Z,27.40
2023-01-30T19:44:02.465Z,25.60
2023-01-30T19:46:29.865Z,26.20
2023-01-30T19:48:57.200Z,26.90
2023-01-30T19:51:26.489Z,22.80
2023-01-30T19:53:58.462Z,27.10
2023-01-30T19:56:26.503Z,27.20
2023-01-30T19:58:55.413Z,27.90
2023-01-30T20:01:24.346Z,29.20
2023-01-30T20:03:51.560Z,27.80
2023-01-30T20:06:21.472Z,26.10
2023-01-30T20:08:50.329Z,27.00
2023-01-30T20:11:18.946Z,27.10
2023-01-30T20:13:46.464Z,27.40
2023-01-30T20:16:18.436Z,28.70
2023-01-30T20:18:48.335Z,28.40
2023-01-30T20:21:20.236Z,27.20
2023-01-30T20:23:48.769Z,27.10
2023-01-30T20:26:21.830Z,26.00
2023-01-30T20:28:49.489Z,25.20
2023-01-30T20:31:22.005Z,23.90
2023-01-30T20:33:49.201Z,24.00
2023-01-30T20:36:19.260Z,25.60
2023-01-30T20:38:47.908Z,25.80
2023-01-30T20:41:23.450Z,24.50
2023-01-30T20:43:52.714Z,25.30
2023-01-30T20:46:23.910Z,24.00
2023-01-30T20:48:54.513Z,25.50
2023-01-30T20:51:24.083Z,25.20
2023-01-30T20:54:05.321Z,25.60
2023-01-30T20:56:34.746Z,24.30
2023-01-30T20:59:03.847Z,25.90
2023-01-30T21:01:30.684Z,26.20
2023-01-30T21:12:51.019Z,23.20
2023-01-30T21:15:17.906Z,22.60
2023-01-30T21:17:44.893Z,24.30
2023-01-30T21:20:11.839Z,23.50
2023-01-30T21:22:39.133Z,26.70
2023-01-30T21:25:06.044Z,25.10
2023-01-30T21:29:59.284Z,22.90
2023-01-30T21:34:52.589Z,24.60
2023-01-30T21:40:23.881Z,22.60
2023-01-30T21:43:09.392Z,25.00
2023-01-30T21:45:36.541Z,25.10
2023-01-30T21:48:03.466Z,27.00
2023-01-30T21:50:30.170Z,25.90
2023-01-30T21:52:57.270Z,26.20
2023-01-30T21:55:24.268Z,25.60
2023-01-30T21:57:51.824Z,28.20
2023-01-30T22:00:18.990Z,25.50
2023-01-30T22:02:49.609Z,24.40
2023-01-30T22:05:16.362Z,27.40
2023-01-30T22:10:10.595Z,22.70
2023-01-30T22:12:40.102Z,25.30
2023-01-30T22:15:08.642Z,23.90
2023-01-30T22:17:35.240Z,26.30
2023-01-30T22:20:02.676Z,25.10
2023-01-30T22:22:31.736Z,27.20
2023-01-30T22:24:58.435Z,24.90
2023-01-30T22:29:51.751Z,25.50
2023-01-30T22:34:44.851Z,21.70
2023-01-30T22:37:11.432Z,26.80
2023-01-30T22:39:38.378Z,27.00
2023-01-30T22:42:07.096Z,25.00
2023-01-30T22:48:47.981Z,25.50
2023-01-30T22:51:23.245Z,25.60
2023-01-30T22:53:52.735Z,26.50
2023-01-30T22:56:22.527Z,26.30
2023-01-30T22:58:50.517Z,24.80
2023-01-30T23:05:38.283Z,25.40
2023-01-30T23:10:31.758Z,21.80
2023-01-30T23:13:07.153Z,25.10
2023-01-30T23:15:40.843Z,25.30
2023-01-30T23:18:29.219Z,24.00
2023-01-30T23:20:56.047Z,23.40
2023-01-30T23:23:22.846Z,23.80
2023-01-30T23:28:16.838Z,24.60
2023-01-30T23:30:43.633Z,24.80
2023-01-30T23:33:10.560Z,24.60
2023-01-30T23:35:37.761Z,25.90
2023-01-30T23:38:16.814Z,25.50
2023-01-30T23:40:44.249Z,26.40
2023-01-30T23:43:11.358Z,24.10
2023-01-30T23:45:38.881Z,23.20
2023-01-30T23:48:08.503Z,24.80
2023-01-30T23:50:37.680Z,25.10
2023-01-30T23:53:06.416Z,22.40
2023-01-30T23:55:33.495Z,22.10
2023-01-30T23:58:00.461Z,22.90
